sensor_id;sensor_type;location;lat;lon;timestamp;temperature;humidity
5017;DHT22;2527;50.892;16.706;2024-01-30T00:01:23;6.70;99.90
5017;DHT22;2527;50.892;16.706;2024-01-30T00:03:49;6.80;99.90
5017;DHT22;2527;50.892;16.706;2024-01-30T00:06:19;6.80;99.90
5017;DHT22;2527;50.892;16.706;2024-01-30T00:08:49;6.80;99.90
5017;DHT22;2527;50.892;16.706;2024-01-30T00:11:15;6.80;99.90
5017;DHT22;2527;50.892;16.706;2024-01-30T00:13:42;6.80;99.90
5017;DHT22;2527;50.892;16.706;2024-01-30T00:16:07;6.70;99.90
5017;DHT22;2527;50.892;16.706;2024-01-30T00:18:34;6.80;99.90
5017;DHT22;2527;50.892;16.706;2024-01-30T00:21:00;6.70;99.90
5017;DHT22;2527;50.892;16.706;2024-01-30T00:23:25;6.70;99.90
5017;DHT22;2527;50.892;16.706;2024-01-30T00:25:51;6.60;99.90
5017;DHT22;2527;50.892;16.706;2024-01-30T00:28:17;6.60;99.90
5017;DHT22;2527;50.892;16.706;2024-01-30T00:30:43;5.20;99.90
5017;DHT22;2527;50.892;16.706;2024-01-30T00:33:09;6.60;99.90
5017;DHT22;2527;50.892;16.706;2024-01-30T00:35:39;6.60;99.90
5017;DHT22;2527;50.892;16.706;2024-01-30T00:38:04;6.50;99.90
5017;DHT22;2527;50.892;16.706;2024-01-30T00:40:33;6.60;99.90
5017;DHT22;2527;50.892;16.706;2024-01-30T00:42:59;6.50;99.90
5017;DHT22;2527;50.892;16.706;2024-01-30T00:45:25;6.50;99.90
5017;DHT22;2527;50.892;16.706;2024-01-30T00:47:50;5.80;99.90
5017;DHT22;2527;50.892;16.706;2024-01-30T00:50:16;6.50;99.90
5017;DHT22;2527;50.892;16.706;2024-01-30T00:52:41;6.50;99.90
5017;DHT22;2527;50.892;16.706;2024-01-30T00:55:10;6.50;99.90
5017;DHT22;2527;50.892;16.706;2024-01-30T00:57:36;6.50;99.90
5017;DHT22;2527;50.892;16.706;2024-01-30T01:00:02;6.50;99.90
5017;DHT22;2527;50.892;16.706;2024-01-30T01:02:28;6.40;99.90
5017;DHT22;2527;50.892;16.706;2024-01-30T01:04:54;6.40;99.90
5017;DHT22;2527;50.892;16.706;2024-01-30T01:07:20;6.40;99.90
5017;DHT22;2527;50.892;16.706;2024-01-30T01:09:46;6.40;99.90
5017;DHT22;2527;50.892;16.706;2024-01-30T01:12:13;6.40;99.90
5017;DHT22;2527;50.892;16.706;2024-01-30T01:14:39;6.40;99.90
5017;DHT22;2527;50.892;16.706;2024-01-30T01:17:04;6.50;99.90
5017;DHT22;2527;50.892;16.706;2024-01-30T01:19:30;6.50;99.90
5017;DHT22;2527;50.892;16.706;2024-01-30T01:21:56;6.50;99.90
5017;DHT22;2527;50.892;16.706;2024-01-30T01:24:22;6.50;99.90
5017;DHT22;2527;50.892;16.706;2024-01-30T01:26:47;6.50;99.90
5017;DHT22;2527;50.892;16.706;2024-01-30T01:29:13;6.50;99.90
5017;DHT22;2527;50.892;16.706;2024-01-30T01:31:41;6.50;99.90
5017;DHT22;2527;50.892;16.706;2024-01-30T01:34:09;6.50;99.90
5017;DHT22;2527;50.892;16.706;2024-01-30T01:36:35;6.50;99.90
5017;DHT22;2527;50.892;16.706;2024-01-30T01:39:01;6.50;99.90
5017;DHT22;2527;50.892;16.706;2024-01-30T01:41:29;6.50;99.90
5017;DHT22;2527;50.892;16.706;2024-01-30T01:43:56;6.50;99.90
5017;DHT22;2527;50.892;16.706;2024-01-30T01:46:21;6.50;99.90
5017;DHT22;2527;50.892;16.706;2024-01-30T01:48:47;6.50;99.90
5017;DHT22;2527;50.892;16.706;2024-01-30T01:51:13;6.50;99.90
5017;DHT22;2527;50.892;16.706;2024-01-30T01:53:39;6.50;99.90
5017;DHT22;2527;50.892;16.706;2024-01-30T01:56:05;6.50;99.90
5017;DHT22;2527;50.892;16.706;2024-01-30T01:58:31;6.50;99.90
5017;DHT22;2527;50.892;16.706;2024-01-30T02:00:58;6.50;99.90
5017;DHT22;2527;50.892;16.706;2024-01-30T02:03:24;6.50;99.90
5017;DHT22;2527;50.892;16.706;2024-01-30T02:05:53;6.50;99.90
5017;DHT22;2527;50.892;16.706;2024-01-30T02:08:19;6.50;99.90
5017;DHT22;2527;50.892;16.706;2024-01-30T02:10:44;6.50;99.90
5017;DHT22;2527;50.892;16.706;2024-01-30T02:13:10;6.50;99.90
5017;DHT22;2527;50.892;16.706;2024-01-30T02:15:36;6.50;99.90
5017;DHT22;2527;50.892;16.706;2024-01-30T02:18:02;6.50;99.90
5017;DHT22;2527;50.892;16.706;2024-01-30T02:20:28;6.50;99.90
5017;DHT22;2527;50.892;16.706;2024-01-30T02:22:55;6.50;99.90
5017;DHT22;2527;50.892;16.706;2024-01-30T02:25:38;6.50;99.90
5017;DHT22;2527;50.892;16.706;2024-01-30T02:28:10;6.50;99.90
5017;DHT22;2527;50.892;16.706;2024-01-30T02:30:36;6.50;99.90
5017;DHT22;2527;50.892;16.706;2024-01-30T02:33:01;6.50;99.90
5017;DHT22;2527;50.892;16.706;2024-01-30T02:35:27;6.50;99.90
5017;DHT22;2527;50.892;16.706;2024-01-30T02:37:53;6.50;99.90
5017;DHT22;2527;50.892;16.706;2024-01-30T02:40:19;6.50;99.90
5017;DHT22;2527;50.892;16.706;2024-01-30T02:42:45;6.50;99.90
5017;DHT22;2527;50.892;16.706;2024-01-30T02:45:11;6.50;99.90
5017;DHT22;2527;50.892;16.706;2024-01-30T02:47:37;6.50;99.90
5017;DHT22;2527;50.892;16.706;2024-01-30T02:50:03;6.50;99.90
5017;DHT22;2527;50.892;16.706;2024-01-30T02:52:29;6.50;99.90
5017;DHT22;2527;50.892;16.706;2024-01-30T02:54:54;6.50;99.90
5017;DHT22;2527;50.892;16.706;2024-01-30T02:57:20;6.40;99.90
5017;DHT22;2527;50.892;16.706;2024-01-30T02:59:46;6.30;99.90
5017;DHT22;2527;50.892;16.706;2024-01-30T03:02:11;6.30;99.90
5017;DHT22;2527;50.892;16.706;2024-01-30T03:04:37;6.30;99.90
5017;DHT22;2527;50.892;16.706;2024-01-30T03:07:02;6.30;99.90
5017;DHT22;2527;50.892;16.706;2024-01-30T03:09:29;6.30;99.90
5017;DHT22;2527;50.892;16.706;2024-01-30T03:11:55;6.30;99.90
5017;DHT22;2527;50.892;16.706;2024-01-30T03:14:20;6.30;99.90
5017;DHT22;2527;50.892;16.706;2024-01-30T03:16:46;6.30;99.90
5017;DHT22;2527;50.892;16.706;2024-01-30T03:19:12;6.20;99.90
5017;DHT22;2527;50.892;16.706;2024-01-30T03:21:37;6.30;99.90
5017;DHT22;2527;50.892;16.706;2024-01-30T03:24:03;6.30;99.90
5017;DHT22;2527;50.892;16.706;2024-01-30T03:26:29;6.30;99.90
5017;DHT22;2527;50.892;16.706;2024-01-30T03:28:55;6.30;99.90
5017;DHT22;2527;50.892;16.706;2024-01-30T03:31:21;6.40;99.90
5017;DHT22;2527;50.892;16.706;2024-01-30T03:33:47;6.40;99.90
5017;DHT22;2527;50.892;16.706;2024-01-30T03:36:14;6.40;99.90
5017;DHT22;2527;50.892;16.706;2024-01-30T03:38:40;6.40;99.90
5017;DHT22;2527;50.892;16.706;2024-01-30T03:41:09;6.40;99.90
5017;DHT22;2527;50.892;16.706;2024-01-30T03:43:37;6.40;99.90
5017;DHT22;2527;50.892;16.706;2024-01-30T03:46:03;6.40;99.90
5017;DHT22;2527;50.892;16.706;2024-01-30T03:48:29;6.40;99.90
5017;DHT22;2527;50.892;16.706;2024-01-30T03:50:54;6.40;99.90
5017;DHT22;2527;50.892;16.706;2024-01-30T03:53:20;6.40;99.90
5017;DHT22;2527;50.892;16.706;2024-01-30T03:55:46;6.40;99.90
5017;DHT22;2527;50.892;16.706;2024-01-30T03:58:11;6.40;99.90
5017;DHT22;2527;50.892;16.706;2024-01-30T04:00:37;6.40;99.90
5017;DHT22;2527;50.892;16.706;2024-01-30T04:03:03;6.40;99.90
5017;DHT22;2527;50.892;16.706;2024-01-30T04:05:29;6.30;99.90
5017;DHT22;2527;50.892;16.706;2024-01-30T04:07:55;6.40;99.90
5017;DHT22;2527;50.892;16.706;2024-01-30T04:10:21;6.30;99.90
5017;DHT22;2527;50.892;16.706;2024-01-30T04:12:48;6.30;99.90
5017;DHT22;2527;50.892;16.706;2024-01-30T04:15:13;6.30;99.90
5017;DHT22;2527;50.892;16.706;2024-01-30T04:17:39;6.40;99.90
5017;DHT22;2527;50.892;16.706;2024-01-30T04:20:05;6.40;99.90
5017;DHT22;2527;50.892;16.706;2024-01-30T04:22:31;6.40;99.90
5017;DHT22;2527;50.892;16.706;2024-01-30T04:24:57;6.30;99.90
5017;DHT22;2527;50.892;16.706;2024-01-30T04:27:23;6.30;99.90
5017;DHT22;2527;50.892;16.706;2024-01-30T04:29:48;6.40;99.90
5017;DHT22;2527;50.892;16.706;2024-01-30T04:32:14;6.30;99.90
5017;DHT22;2527;50.892;16.706;2024-01-30T04:34:40;6.30;99.90
5017;DHT22;2527;50.892;16.706;2024-01-30T04:37:06;6.30;99.90
5017;DHT22;2527;50.892;16.706;2024-01-30T04:39:34;6.30;99.90
5017;DHT22;2527;50.892;16.706;2024-01-30T04:42:00;6.30;99.90
5017;DHT22;2527;50.892;16.706;2024-01-30T04:44:26;6.30;99.90
5017;DHT22;2527;50.892;16.706;2024-01-30T04:46:51;6.30;99.90
5017;DHT22;2527;50.892;16.706;2024-01-30T04:49:17;6.30;99.90
5017;DHT22;2527;50.892;16.706;2024-01-30T04:51:43;6.20;99.90
5017;DHT22;2527;50.892;16.706;2024-01-30T04:54:09;6.20;99.90
5017;DHT22;2527;50.892;16.706;2024-01-30T04:56:34;6.20;99.90
5017;DHT22;2527;50.892;16.706;2024-01-30T04:59:02;6.20;99.90
5017;DHT22;2527;50.892;16.706;2024-01-30T05:01:28;6.20;99.90
5017;DHT22;2527;50.892;16.706;2024-01-30T05:03:54;6.30;99.90
5017;DHT22;2527;50.892;16.706;2024-01-30T05:06:25;6.20;99.90
5017;DHT22;2527;50.892;16.706;2024-01-30T05:08:51;6.20;99.90
5017;DHT22;2527;50.892;16.706;2024-01-30T05:11:17;6.30;99.90
5017;DHT22;2527;50.892;16.706;2024-01-30T05:13:43;6.20;99.90
5017;DHT22;2527;50.892;16.706;2024-01-30T05:16:08;6.20;99.90
5017;DHT22;2527;50.892;16.706;2024-01-30T05:18:34;6.20;99.90
5017;DHT22;2527;50.892;16.706;2024-01-30T05:21:00;6.30;99.90
5017;DHT22;2527;50.892;16.706;2024-01-30T05:23:25;6.20;99.90
5017;DHT22;2527;50.892;16.706;2024-01-30T05:25:51;6.20;99.90
5017;DHT22;2527;50.892;16.706;2024-01-30T05:28:16;6.20;99.90
5017;DHT22;2527;50.892;16.706;2024-01-30T05:30:43;6.20;99.90
5017;DHT22;2527;50.892;16.706;2024-01-30T05:33:08;6.20;99.90
5017;DHT22;2527;50.892;16.706;2024-01-30T05:35:35;6.20;99.90
5017;DHT22;2527;50.892;16.706;2024-01-30T05:38:00;6.20;99.90
5017;DHT22;2527;50.892;16.706;2024-01-30T05:40:26;6.20;99.90
5017;DHT22;2527;50.892;16.706;2024-01-30T05:42:52;6.20;99.90
5017;DHT22;2527;50.892;16.706;2024-01-30T05:45:18;6.10;99.90
5017;DHT22;2527;50.892;16.706;2024-01-30T05:47:44;6.10;99.90
5017;DHT22;2527;50.892;16.706;2024-01-30T05:50:09;6.10;99.90
5017;DHT22;2527;50.892;16.706;2024-01-30T05:52:35;6.20;99.90
5017;DHT22;2527;50.892;16.706;2024-01-30T05:55:00;6.10;99.90
5017;DHT22;2527;50.892;16.706;2024-01-30T05:57:27;6.20;99.90
5017;DHT22;2527;50.892;16.706;2024-01-30T05:59:53;6.10;99.90
5017;DHT22;2527;50.892;16.706;2024-01-30T06:02:19;6.10;99.90
5017;DHT22;2527;50.892;16.706;2024-01-30T06:04:45;6.10;99.90
5017;DHT22;2527;50.892;16.706;2024-01-30T06:07:10;6.10;99.90
5017;DHT22;2527;50.892;16.706;2024-01-30T06:09:36;6.10;99.90
5017;DHT22;2527;50.892;16.706;2024-01-30T06:12:01;6.20;99.90
5017;DHT22;2527;50.892;16.706;2024-01-30T06:14:27;6.20;99.90
5017;DHT22;2527;50.892;16.706;2024-01-30T06:16:53;6.20;99.90
5017;DHT22;2527;50.892;16.706;2024-01-30T06:19:19;6.20;99.90
5017;DHT22;2527;50.892;16.706;2024-01-30T06:21:45;6.20;99.90
5017;DHT22;2527;50.892;16.706;2024-01-30T06:24:11;6.10;99.90
5017;DHT22;2527;50.892;16.706;2024-01-30T06:26:36;6.10;99.90
5017;DHT22;2527;50.892;16.706;2024-01-30T06:29:02;6.10;99.90
5017;DHT22;2527;50.892;16.706;2024-01-30T06:31:28;6.10;99.90
5017;DHT22;2527;50.892;16.706;2024-01-30T06:33:53;6.10;99.90
5017;DHT22;2527;50.892;16.706;2024-01-30T06:36:19;6.10;99.90
5017;DHT22;2527;50.892;16.706;2024-01-30T06:38:45;6.10;99.90
5017;DHT22;2527;50.892;16.706;2024-01-30T06:41:10;6.10;99.90
5017;DHT22;2527;50.892;16.706;2024-01-30T06:43:36;6.10;99.90
5017;DHT22;2527;50.892;16.706;2024-01-30T06:46:04;6.10;99.90
5017;DHT22;2527;50.892;16.706;2024-01-30T06:48:30;6.00;99.90
5017;DHT22;2527;50.892;16.706;2024-01-30T06:50:57;6.00;99.90
5017;DHT22;2527;50.892;16.706;2024-01-30T06:53:23;6.00;99.90
5017;DHT22;2527;50.892;16.706;2024-01-30T06:55:49;6.00;99.90
5017;DHT22;2527;50.892;16.706;2024-01-30T06:58:16;6.00;99.90
5017;DHT22;2527;50.892;16.706;2024-01-30T07:00:41;6.00;99.90
5017;DHT22;2527;50.892;16.706;2024-01-30T07:03:07;6.00;99.90
5017;DHT22;2527;50.892;16.706;2024-01-30T07:05:33;6.00;99.90
5017;DHT22;2527;50.892;16.706;2024-01-30T07:07:58;6.00;99.90
5017;DHT22;2527;50.892;16.706;2024-01-30T07:10:24;6.00;99.90
5017;DHT22;2527;50.892;16.706;2024-01-30T07:12:51;6.10;99.90
5017;DHT22;2527;50.892;16.706;2024-01-30T07:15:17;6.10;99.90
5017;DHT22;2527;50.892;16.706;2024-01-30T07:17:45;6.10;99.90
5017;DHT22;2527;50.892;16.706;2024-01-30T07:20:11;6.10;99.90
5017;DHT22;2527;50.892;16.706;2024-01-30T07:22:39;6.20;99.90
5017;DHT22;2527;50.892;16.706;2024-01-30T07:25:05;6.20;99.90
5017;DHT22;2527;50.892;16.706;2024-01-30T07:27:31;6.20;99.90
5017;DHT22;2527;50.892;16.706;2024-01-30T07:29:57;6.20;99.90
5017;DHT22;2527;50.892;16.706;2024-01-30T07:32:23;6.20;99.90
5017;DHT22;2527;50.892;16.706;2024-01-30T07:34:49;6.20;99.90
5017;DHT22;2527;50.892;16.706;2024-01-30T07:37:15;6.30;99.90
5017;DHT22;2527;50.892;16.706;2024-01-30T07:39:42;6.30;99.90
5017;DHT22;2527;50.892;16.706;2024-01-30T07:42:08;6.30;99.90
5017;DHT22;2527;50.892;16.706;2024-01-30T07:44:34;6.30;99.90
5017;DHT22;2527;50.892;16.706;2024-01-30T07:47:01;6.40;99.90
5017;DHT22;2527;50.892;16.706;2024-01-30T07:49:26;6.40;99.90
5017;DHT22;2527;50.892;16.706;2024-01-30T07:51:52;6.40;99.90
5017;DHT22;2527;50.892;16.706;2024-01-30T07:54:18;6.40;99.90
5017;DHT22;2527;50.892;16.706;2024-01-30T07:56:44;6.50;99.90
5017;DHT22;2527;50.892;16.706;2024-01-30T07:59:10;6.50;99.90
5017;DHT22;2527;50.892;16.706;2024-01-30T08:01:36;6.60;99.90
5017;DHT22;2527;50.892;16.706;2024-01-30T08:04:02;6.70;99.90
5017;DHT22;2527;50.892;16.706;2024-01-30T08:06:27;6.70;99.90
5017;DHT22;2527;50.892;16.706;2024-01-30T08:08:53;6.80;99.90
5017;DHT22;2527;50.892;16.706;2024-01-30T08:11:22;6.80;99.90
5017;DHT22;2527;50.892;16.706;2024-01-30T08:13:54;7.00;99.90
5017;DHT22;2527;50.892;16.706;2024-01-30T08:16:19;7.00;99.90
5017;DHT22;2527;50.892;16.706;2024-01-30T08:18:45;7.10;99.90
5017;DHT22;2527;50.892;16.706;2024-01-30T08:21:11;7.30;99.90
5017;DHT22;2527;50.892;16.706;2024-01-30T08:23:38;7.30;99.90
5017;DHT22;2527;50.892;16.706;2024-01-30T08:26:04;7.50;99.90
5017;DHT22;2527;50.892;16.706;2024-01-30T08:28:31;7.60;99.90
5017;DHT22;2527;50.892;16.706;2024-01-30T08:30:57;7.70;99.90
5017;DHT22;2527;50.892;16.706;2024-01-30T08:33:31;7.80;99.90
5017;DHT22;2527;50.892;16.706;2024-01-30T08:35:57;7.90;99.90
5017;DHT22;2527;50.892;16.706;2024-01-30T08:38:23;8.00;99.90
5017;DHT22;2527;50.892;16.706;2024-01-30T08:40:49;8.20;99.90
5017;DHT22;2527;50.892;16.706;2024-01-30T08:43:14;8.30;99.90
5017;DHT22;2527;50.892;16.706;2024-01-30T08:45:40;8.30;99.90
5017;DHT22;2527;50.892;16.706;2024-01-30T08:48:06;8.40;99.90
5017;DHT22;2527;50.892;16.706;2024-01-30T08:50:33;8.50;99.90
5017;DHT22;2527;50.892;16.706;2024-01-30T08:52:59;8.60;99.90
5017;DHT22;2527;50.892;16.706;2024-01-30T08:55:25;8.70;99.90
5017;DHT22;2527;50.892;16.706;2024-01-30T08:57:51;8.80;99.90
5017;DHT22;2527;50.892;16.706;2024-01-30T09:00:17;8.90;99.90
5017;DHT22;2527;50.892;16.706;2024-01-30T09:02:43;9.00;99.90
5017;DHT22;2527;50.892;16.706;2024-01-30T09:05:09;9.10;99.90
5017;DHT22;2527;50.892;16.706;2024-01-30T09:07:35;9.10;99.90
5017;DHT22;2527;50.892;16.706;2024-01-30T09:10:00;9.20;99.90
5017;DHT22;2527;50.892;16.706;2024-01-30T09:12:26;9.30;99.90
5017;DHT22;2527;50.892;16.706;2024-01-30T09:14:51;9.40;99.90
5017;DHT22;2527;50.892;16.706;2024-01-30T09:17:17;9.50;99.90
5017;DHT22;2527;50.892;16.706;2024-01-30T09:19:43;9.60;99.90
5017;DHT22;2527;50.892;16.706;2024-01-30T09:22:09;9.70;99.90
5017;DHT22;2527;50.892;16.706;2024-01-30T09:24:35;9.70;99.90
5017;DHT22;2527;50.892;16.706;2024-01-30T09:27:01;9.90;99.90
5017;DHT22;2527;50.892;16.706;2024-01-30T09:29:27;10.00;99.90
5017;DHT22;2527;50.892;16.706;2024-01-30T09:31:52;11.20;99.90
5017;DHT22;2527;50.892;16.706;2024-01-30T09:34:18;10.20;99.90
5017;DHT22;2527;50.892;16.706;2024-01-30T09:36:44;10.20;99.90
5017;DHT22;2527;50.892;16.706;2024-01-30T09:39:10;10.30;99.90
5017;DHT22;2527;50.892;16.706;2024-01-30T09:41:39;10.40;99.90
5017;DHT22;2527;50.892;16.706;2024-01-30T09:44:10;10.40;99.90
5017;DHT22;2527;50.892;16.706;2024-01-30T09:46:36;10.40;99.90
5017;DHT22;2527;50.892;16.706;2024-01-30T09:49:03;10.50;99.90
5017;DHT22;2527;50.892;16.706;2024-01-30T09:51:29;10.60;99.90
5017;DHT22;2527;50.892;16.706;2024-01-30T09:53:55;10.70;99.90
5017;DHT22;2527;50.892;16.706;2024-01-30T09:56:22;10.70;99.90
5017;DHT22;2527;50.892;16.706;2024-01-30T09:58:47;10.80;99.90
5017;DHT22;2527;50.892;16.706;2024-01-30T10:01:14;10.80;99.90
5017;DHT22;2527;50.892;16.706;2024-01-30T10:03:47;10.90;99.90
5017;DHT22;2527;50.892;16.706;2024-01-30T10:06:13;11.00;99.90
5017;DHT22;2527;50.892;16.706;2024-01-30T10:08:39;11.10;99.90
5017;DHT22;2527;50.892;16.706;2024-01-30T10:11:05;11.10;99.90
5017;DHT22;2527;50.892;16.706;2024-01-30T10:13:31;11.20;99.90
5017;DHT22;2527;50.892;16.706;2024-01-30T10:15:57;11.30;99.90
5017;DHT22;2527;50.892;16.706;2024-01-30T10:18:25;11.30;99.90
5017;DHT22;2527;50.892;16.706;2024-01-30T10:20:51;11.30;99.90
5017;DHT22;2527;50.892;16.706;2024-01-30T10:23:17;11.40;99.90
5017;DHT22;2527;50.892;16.706;2024-01-30T10:25:45;11.40;99.90
5017;DHT22;2527;50.892;16.706;2024-01-30T10:28:11;11.50;99.90
5017;DHT22;2527;50.892;16.706;2024-01-30T10:30:36;11.50;99.90
5017;DHT22;2527;50.892;16.706;2024-01-30T10:33:02;11.50;99.90
5017;DHT22;2527;50.892;16.706;2024-01-30T10:35:28;11.50;99.90
5017;DHT22;2527;50.892;16.706;2024-01-30T10:37:54;11.50;99.90
5017;DHT22;2527;50.892;16.706;2024-01-30T10:40:22;11.50;99.90
5017;DHT22;2527;50.892;16.706;2024-01-30T10:42:50;11.50;99.90
5017;DHT22;2527;50.892;16.706;2024-01-30T10:45:20;11.60;99.90
5017;DHT22;2527;50.892;16.706;2024-01-30T10:47:50;11.50;99.90
5017;DHT22;2527;50.892;16.706;2024-01-30T10:50:18;11.60;99.90
5017;DHT22;2527;50.892;16.706;2024-01-30T10:52:44;11.50;99.90
5017;DHT22;2527;50.892;16.706;2024-01-30T10:55:10;11.50;99.90
5017;DHT22;2527;50.892;16.706;2024-01-30T10:57:36;11.50;99.90
5017;DHT22;2527;50.892;16.706;2024-01-30T11:00:03;11.50;99.90
5017;DHT22;2527;50.892;16.706;2024-01-30T11:02:39;11.40;99.90
5017;DHT22;2527;50.892;16.706;2024-01-30T11:05:05;11.50;99.90
5017;DHT22;2527;50.892;16.706;2024-01-30T11:07:31;11.50;99.90
5017;DHT22;2527;50.892;16.706;2024-01-30T11:12:29;11.50;99.90
5017;DHT22;2527;50.892;16.706;2024-01-30T11:15:14;11.50;99.90
5017;DHT22;2527;50.892;16.706;2024-01-30T11:20:09;11.50;99.90
5017;DHT22;2527;50.892;16.706;2024-01-30T11:22:37;11.50;99.90
5017;DHT22;2527;50.892;16.706;2024-01-30T11:25:03;11.50;99.90
5017;DHT22;2527;50.892;16.706;2024-01-30T11:27:31;11.50;99.90
5017;DHT22;2527;50.892;16.706;2024-01-30T11:30:01;11.50;99.90
5017;DHT22;2527;50.892;16.706;2024-01-30T11:32:27;11.60;99.90
5017;DHT22;2527;50.892;16.706;2024-01-30T11:34:53;11.60;99.90
5017;DHT22;2527;50.892;16.706;2024-01-30T11:37:19;11.60;99.90
5017;DHT22;2527;50.892;16.706;2024-01-30T11:39:46;11.60;99.90
5017;DHT22;2527;50.892;16.706;2024-01-30T11:42:12;11.60;99.90
5017;DHT22;2527;50.892;16.706;2024-01-30T11:44:39;11.60;99.90
5017;DHT22;2527;50.892;16.706;2024-01-30T11:47:04;11.60;99.90
5017;DHT22;2527;50.892;16.706;2024-01-30T11:49:30;11.60;99.90
5017;DHT22;2527;50.892;16.706;2024-01-30T11:51:56;11.60;99.90
5017;DHT22;2527;50.892;16.706;2024-01-30T11:54:22;11.70;99.90
5017;DHT22;2527;50.892;16.706;2024-01-30T11:56:48;11.60;99.90
5017;DHT22;2527;50.892;16.706;2024-01-30T11:59:13;11.70;99.90
5017;DHT22;2527;50.892;16.706;2024-01-30T12:01:39;11.70;99.90
5017;DHT22;2527;50.892;16.706;2024-01-30T12:04:05;11.70;99.90
5017;DHT22;2527;50.892;16.706;2024-01-30T12:06:34;11.70;99.90
5017;DHT22;2527;50.892;16.706;2024-01-30T12:09:01;11.80;99.90
5017;DHT22;2527;50.892;16.706;2024-01-30T12:11:31;11.80;99.90
5017;DHT22;2527;50.892;16.706;2024-01-30T12:13:56;11.80;99.90
5017;DHT22;2527;50.892;16.706;2024-01-30T12:16:22;11.80;99.90
5017;DHT22;2527;50.892;16.706;2024-01-30T12:19:01;11.80;99.90
5017;DHT22;2527;50.892;16.706;2024-01-30T12:21:28;11.80;99.90
5017;DHT22;2527;50.892;16.706;2024-01-30T12:23:54;11.90;99.90
5017;DHT22;2527;50.892;16.706;2024-01-30T12:26:19;11.90;99.90
5017;DHT22;2527;50.892;16.706;2024-01-30T12:28:48;11.90;99.90
5017;DHT22;2527;50.892;16.706;2024-01-30T12:31:15;11.90;99.90
5017;DHT22;2527;50.892;16.706;2024-01-30T12:33:41;11.90;99.90
5017;DHT22;2527;50.892;16.706;2024-01-30T12:36:07;12.00;99.90
5017;DHT22;2527;50.892;16.706;2024-01-30T12:38:33;12.00;99.90
5017;DHT22;2527;50.892;16.706;2024-01-30T12:40:58;12.00;99.90
5017;DHT22;2527;50.892;16.706;2024-01-30T12:43:25;12.00;99.90
5017;DHT22;2527;50.892;16.706;2024-01-30T12:45:52;12.00;99.90
5017;DHT22;2527;50.892;16.706;2024-01-30T12:48:28;12.00;99.90
5017;DHT22;2527;50.892;16.706;2024-01-30T12:50:55;12.00;99.90
5017;DHT22;2527;50.892;16.706;2024-01-30T12:53:21;12.00;99.90
5017;DHT22;2527;50.892;16.706;2024-01-30T12:55:47;12.00;99.90
5017;DHT22;2527;50.892;16.706;2024-01-30T12:58:15;12.00;99.90
5017;DHT22;2527;50.892;16.706;2024-01-30T13:00:41;12.00;99.90
5017;DHT22;2527;50.892;16.706;2024-01-30T13:03:09;12.00;99.90
5017;DHT22;2527;50.892;16.706;2024-01-30T13:05:35;12.00;99.90
5017;DHT22;2527;50.892;16.706;2024-01-30T13:08:01;12.00;99.90
5017;DHT22;2527;50.892;16.706;2024-01-30T13:10:27;12.10;99.90
5017;DHT22;2527;50.892;16.706;2024-01-30T13:12:53;12.10;99.90
5017;DHT22;2527;50.892;16.706;2024-01-30T13:15:19;12.10;99.90
5017;DHT22;2527;50.892;16.706;2024-01-30T13:17:46;12.10;99.90
5017;DHT22;2527;50.892;16.706;2024-01-30T13:20:13;12.20;99.90
5017;DHT22;2527;50.892;16.706;2024-01-30T13:22:43;12.20;99.90
5017;DHT22;2527;50.892;16.706;2024-01-30T13:25:08;12.20;99.90
5017;DHT22;2527;50.892;16.706;2024-01-30T13:27:38;11.60;99.90
5017;DHT22;2527;50.892;16.706;2024-01-30T13:30:04;12.20;99.90
5017;DHT22;2527;50.892;16.706;2024-01-30T13:32:29;12.30;99.90
5017;DHT22;2527;50.892;16.706;2024-01-30T13:34:55;12.20;99.90
5017;DHT22;2527;50.892;16.706;2024-01-30T13:37:22;12.30;99.90
5017;DHT22;2527;50.892;16.706;2024-01-30T13:39:49;12.20;99.90
5017;DHT22;2527;50.892;16.706;2024-01-30T13:42:16;12.20;99.90
5017;DHT22;2527;50.892;16.706;2024-01-30T13:44:42;12.30;99.90
5017;DHT22;2527;50.892;16.706;2024-01-30T13:47:13;12.20;99.90
5017;DHT22;2527;50.892;16.706;2024-01-30T13:49:39;12.30;99.90
5017;DHT22;2527;50.892;16.706;2024-01-30T13:52:05;12.20;99.90
5017;DHT22;2527;50.892;16.706;2024-01-30T13:54:31;12.20;99.90
5017;DHT22;2527;50.892;16.706;2024-01-30T13:56:59;12.20;99.90
5017;DHT22;2527;50.892;16.706;2024-01-30T13:59:27;12.20;99.90
5017;DHT22;2527;50.892;16.706;2024-01-30T14:01:59;12.20;99.90
5017;DHT22;2527;50.892;16.706;2024-01-30T14:04:25;12.20;99.90
5017;DHT22;2527;50.892;16.706;2024-01-30T14:06:50;12.20;99.90
5017;DHT22;2527;50.892;16.706;2024-01-30T14:09:16;12.20;99.90
5017;DHT22;2527;50.892;16.706;2024-01-30T14:11:43;12.20;99.90
5017;DHT22;2527;50.892;16.706;2024-01-30T14:14:09;12.10;99.90
5017;DHT22;2527;50.892;16.706;2024-01-30T14:16:34;12.10;99.90
5017;DHT22;2527;50.892;16.706;2024-01-30T14:19:01;12.10;99.90
5017;DHT22;2527;50.892;16.706;2024-01-30T14:21:27;12.10;99.90
5017;DHT22;2527;50.892;16.706;2024-01-30T14:23:53;12.10;99.90
5017;DHT22;2527;50.892;16.706;2024-01-30T14:26:19;12.10;99.90
5017;DHT22;2527;50.892;16.706;2024-01-30T14:28:46;12.10;99.90
5017;DHT22;2527;50.892;16.706;2024-01-30T14:31:13;12.00;99.90
5017;DHT22;2527;50.892;16.706;2024-01-30T14:33:39;13.00;99.90
5017;DHT22;2527;50.892;16.706;2024-01-30T14:36:05;12.00;99.90
5017;DHT22;2527;50.892;16.706;2024-01-30T14:38:30;12.00;99.90
5017;DHT22;2527;50.892;16.706;2024-01-30T14:40:57;12.00;99.90
5017;DHT22;2527;50.892;16.706;2024-01-30T14:43:22;12.00;99.90
5017;DHT22;2527;50.892;16.706;2024-01-30T14:45:48;11.90;99.90
5017;DHT22;2527;50.892;16.706;2024-01-30T14:48:15;11.90;99.90
5017;DHT22;2527;50.892;16.706;2024-01-30T14:50:41;11.90;99.90
5017;DHT22;2527;50.892;16.706;2024-01-30T14:53:06;11.80;99.90
5017;DHT22;2527;50.892;16.706;2024-01-30T14:55:32;11.80;99.90
5017;DHT22;2527;50.892;16.706;2024-01-30T14:57:59;11.80;99.90
5017;DHT22;2527;50.892;16.706;2024-01-30T15:00:25;11.80;99.90
5017;DHT22;2527;50.892;16.706;2024-01-30T15:02:51;11.70;99.90
5017;DHT22;2527;50.892;16.706;2024-01-30T15:05:18;11.70;99.90
5017;DHT22;2527;50.892;16.706;2024-01-30T15:07:44;11.70;99.90
5017;DHT22;2527;50.892;16.706;2024-01-30T15:10:10;11.70;99.90
5017;DHT22;2527;50.892;16.706;2024-01-30T15:12:36;11.60;99.90
5017;DHT22;2527;50.892;16.706;2024-01-30T15:15:02;11.60;99.90
5017;DHT22;2527;50.892;16.706;2024-01-30T15:17:30;11.60;99.90
5017;DHT22;2527;50.892;16.706;2024-01-30T15:19:56;11.60;99.90
5017;DHT22;2527;50.892;16.706;2024-01-30T15:22:27;11.50;99.90
5017;DHT22;2527;50.892;16.706;2024-01-30T15:25:01;11.50;99.90
5017;DHT22;2527;50.892;16.706;2024-01-30T15:27:29;11.40;99.90
5017;DHT22;2527;50.892;16.706;2024-01-30T15:29:55;11.40;99.90
5017;DHT22;2527;50.892;16.706;2024-01-30T15:32:21;11.30;99.90
5017;DHT22;2527;50.892;16.706;2024-01-30T15:34:46;11.20;99.90
5017;DHT22;2527;50.892;16.706;2024-01-30T15:37:12;11.20;99.90
5017;DHT22;2527;50.892;16.706;2024-01-30T15:39:39;11.10;99.90
5017;DHT22;2527;50.892;16.706;2024-01-30T15:42:10;11.00;99.90
5017;DHT22;2527;50.892;16.706;2024-01-30T15:44:35;10.90;99.90
5017;DHT22;2527;50.892;16.706;2024-01-30T15:47:01;10.90;99.90
5017;DHT22;2527;50.892;16.706;2024-01-30T15:49:27;10.90;99.90
5017;DHT22;2527;50.892;16.706;2024-01-30T15:51:53;10.80;99.90
5017;DHT22;2527;50.892;16.706;2024-01-30T15:54:19;9.80;99.90